Time;durP1;ratioP1;P1;durP2;ratioP2;P2;SDS_P1;SDS_P2;PMS_P1;PMS_P2;Temp;Humidity;BMP_temperature;BMP_pressure;BME280_temperature;BME280_humidity;BME280_pressure;Samples;Min_cycle;Max_cycle;Signal;HPM_P1;HPM_P2
2023/09/14 00:00:35;;;;;;;4.40;1.30;;;8.50;99.90;;;;;;4938845;28;20134;-75
2023/09/14 00:03:02;;;;;;;4.43;1.20;;;9.00;99.90;;;;;;4938126;28;20062;-77
2023/09/14 00:05:29;;;;;;;6.07;1.60;;;9.00;99.90;;;;;;4938644;28;20129;-79
2023/09/14 00:07:55;;;;;;;6.95;1.58;;;8.50;99.90;;;;;;4938140;28;20453;-77
2023/09/14 00:10:21;;;;;;;8.32;2.63;;;8.50;99.90;;;;;;4932433;28;20067;-78
2023/09/14 00:12:47;;;;;;;5.70;1.88;;;;;;;;;;4938515;28;20932;-76
2023/09/14 00:15:12;;;;;;;6.10;2.30;;;8.70;99.90;;;;;;4937376;28;20061;-75
2023/09/14 00:17:38;;;;;;;4.53;1.75;;;9.60;99.90;;;;;;4955268;28;20051;-77
2023/09/14 00:20:06;;;;;;;5.25;2.20;;;8.70;99.90;;;;;;4936867;28;20059;-78
2023/09/14 00:22:32;;;;;;;9.45;2.03;;;8.80;99.90;;;;;;4933436;28;20150;-78
2023/09/14 00:24:58;;;;;;;4.82;2.45;;;10.20;99.90;;;;;;4953474;28;20063;-77
2023/09/14 00:27:24;;;;;;;7.70;2.28;;;8.80;99.90;;;;;;4936957;28;20055;-76
2023/09/14 00:29:49;;;;;;;8.52;2.45;;;9.50;99.90;;;;;;4936012;28;20058;-76
2023/09/14 00:32:15;;;;;;;6.30;2.38;;;8.80;99.90;;;;;;4935149;28;20587;-78
2023/09/14 00:34:41;;;;;;;9.55;3.25;;;8.80;99.90;;;;;;4936107;28;20077;-75
2023/09/14 00:37:06;;;;;;;8.52;1.95;;;9.20;99.90;;;;;;4920159;28;20058;-75
2023/09/14 00:39:32;;;;;;;5.70;2.30;;;9.10;99.90;;;;;;4936460;28;20051;-78
2023/09/14 00:41:58;;;;;;;6.47;2.00;;;8.90;99.90;;;;;;4937114;28;20089;-78
2023/09/14 00:44:23;;;;;;;6.20;3.15;;;9.50;99.90;;;;;;4937389;28;20866;-76
2023/09/14 00:46:49;;;;;;;8.35;2.20;;;9.40;99.90;;;;;;4937485;28;20090;-77
2023/09/14 00:49:15;;;;;;;5.32;2.15;;;8.80;99.90;;;;;;4956512;28;20135;-78
2023/09/14 00:51:41;;;;;;;4.75;1.90;;;8.80;99.90;;;;;;4937738;28;20186;-75
2023/09/14 00:54:07;;;;;;;5.65;2.40;;;8.80;99.90;;;;;;4936217;28;20530;-78
2023/09/14 00:56:33;;;;;;;3.40;1.75;;;8.80;99.90;;;;;;4953874;28;20067;-79
2023/09/14 00:58:59;;;;;;;8.00;2.42;;;8.90;99.90;;;;;;4937173;28;20063;-75
2023/09/14 01:01:25;;;;;;;5.90;1.60;;;9.00;99.90;;;;;;4944115;28;20055;-78
2023/09/14 01:03:51;;;;;;;5.10;2.13;;;8.90;99.90;;;;;;4937027;28;20055;-75
2023/09/14 01:06:16;;;;;;;4.22;2.10;;;8.90;99.90;;;;;;4937097;28;20093;-76
2023/09/14 01:08:42;;;;;;;7.63;1.90;;;8.90;99.90;;;;;;4937142;28;20073;-78
2023/09/14 01:11:08;;;;;;;7.90;2.33;;;8.90;99.90;;;;;;4936447;28;20673;-78
2023/09/14 01:13:59;;;;;;;4.18;1.67;;;9.00;99.90;;;;;;4936693;28;20054;-78
2023/09/14 01:16:40;;;;;;;5.30;2.00;;;9.00;99.90;;;;;;4936622;28;20137;-78
2023/09/14 01:19:38;;;;;;;6.18;2.50;;;9.00;99.90;;;;;;4937041;28;20058;-76
2023/09/14 01:22:35;;;;;;;7.53;2.20;;;9.00;99.90;;;;;;4932785;28;20106;-77
2023/09/14 01:25:39;;;;;;;10.27;2.20;;;9.10;99.90;;;;;;4952543;28;20149;-75
2023/09/14 01:28:13;;;;;;;4.78;2.05;;;9.00;99.90;;;;;;4883515;28;20183;-78
2023/09/14 01:30:39;;;;;;;4.25;2.17;;;9.50;99.90;;;;;;4935444;28;20867;-78
2023/09/14 01:33:17;;;;;;;5.97;2.17;;;9.00;99.90;;;;;;4936439;28;20063;-76
2023/09/14 01:36:12;;;;;;;4.95;1.48;;;9.10;99.90;;;;;;4949097;28;20083;-75
2023/09/14 01:38:38;;;;;;;6.43;1.70;;;9.10;99.90;;;;;;4952069;28;20661;-74
2023/09/14 01:41:05;;;;;;;5.47;2.13;;;9.40;99.90;;;;;;4937094;28;20073;-78
2023/09/14 01:43:32;;;;;;;4.53;1.80;;;10.60;99.90;;;;;;4950585;28;20496;-78
2023/09/14 01:45:58;;;;;;;4.72;1.70;;;9.70;99.90;;;;;;4939745;28;20055;-75
2023/09/14 01:48:24;;;;;;;5.82;3.33;;;9.00;99.90;;;;;;4957709;28;20051;-78
2023/09/14 01:50:49;;;;;;;8.73;2.20;;;9.10;99.90;;;;;;4954009;28;20148;-77
2023/09/14 01:53:15;;;;;;;7.13;2.50;;;9.20;99.90;;;;;;4938778;28;20047;-77
2023/09/14 01:55:41;;;;;;;7.45;2.80;;;9.20;99.90;;;;;;4941117;28;20086;-77
2023/09/14 01:58:07;;;;;;;6.63;2.50;;;;;;;;;;4940913;28;20047;-79
2023/09/14 02:00:33;;;;;;;8.32;2.92;;;9.20;99.90;;;;;;4934480;28;20059;-79
2023/09/14 02:02:59;;;;;;;8.68;2.45;;;9.60;99.90;;;;;;4939897;28;20415;-77
2023/09/14 02:05:24;;;;;;;6.00;1.63;;;9.30;99.90;;;;;;4940156;28;20054;-76
2023/09/14 02:07:50;;;;;;;5.70;1.70;;;9.50;99.90;;;;;;4947872;28;20871;-78
2023/09/14 02:10:17;;;;;;;5.28;1.98;;;9.30;99.90;;;;;;4940440;28;20093;-75
2023/09/14 02:12:42;;;;;;;5.43;1.85;;;10.00;99.90;;;;;;4939778;28;20156;-76
2023/09/14 02:15:11;;;;;;;5.18;1.90;;;9.30;99.90;;;;;;4956638;28;20141;-78
2023/09/14 02:17:37;;;;;;;5.93;1.95;;;9.30;99.90;;;;;;4939874;28;20224;-76
2023/09/14 02:20:05;;;;;;;4.20;1.33;;;12.10;99.90;;;;;;4938997;28;20047;-78
2023/09/14 02:22:31;;;;;;;5.57;1.65;;;9.20;99.90;;;;;;4951890;28;20576;-77
2023/09/14 02:24:57;;;;;;;5.43;1.58;;;9.30;99.90;;;;;;4939566;28;20054;-78
2023/09/14 02:27:23;;;;;;;6.32;1.45;;;9.60;99.90;;;;;;4939748;28;20082;-76
2023/09/14 02:29:55;;;;;;;7.28;2.58;;;9.10;99.90;;;;;;4939826;28;20061;-76
2023/09/14 02:32:21;;;;;;;4.22;1.15;;;9.00;99.90;;;;;;4955026;28;20061;-77
2023/09/14 02:34:50;;;;;;;5.55;1.67;;;9.00;99.90;;;;;;4939140;28;20170;-79
2023/09/14 02:37:16;;;;;;;8.70;1.75;;;8.90;99.90;;;;;;4939231;28;20345;-75
2023/09/14 02:39:41;;;;;;;5.10;1.38;;;8.90;99.90;;;;;;4939194;28;20773;-76
2023/09/14 02:42:07;;;;;;;4.00;1.60;;;8.80;99.90;;;;;;4955853;28;20062;-76
2023/09/14 02:44:35;;;;;;;9.05;2.17;;;11.80;99.90;;;;;;4938595;28;20082;-78
2023/09/14 02:47:00;;;;;;;7.35;1.85;;;8.70;99.90;;;;;;4939652;28;20050;-75
2023/09/14 02:49:26;;;;;;;6.25;2.13;;;11.40;99.90;;;;;;4938949;28;20108;-78
2023/09/14 02:51:52;;;;;;;5.85;1.80;;;8.60;99.90;;;;;;4956495;28;20857;-78
2023/09/14 02:54:21;;;;;;;5.45;1.48;;;8.90;99.90;;;;;;4922304;28;20058;-76
2023/09/14 02:56:47;;;;;;;4.65;1.40;;;8.40;99.90;;;;;;4952548;28;20058;-76
2023/09/14 02:59:16;;;;;;;6.40;2.15;;;8.40;99.90;;;;;;4940119;28;20063;-75
2023/09/14 03:01:44;;;;;;;6.40;2.70;;;9.00;99.90;;;;;;4923800;28;20129;-78
2023/09/14 03:04:10;;;;;;;9.07;1.80;;;8.40;99.90;;;;;;4939131;28;20059;-77
2023/09/14 03:06:35;;;;;;;5.45;1.63;;;8.20;99.90;;;;;;4939671;28;20094;-76
2023/09/14 03:09:01;;;;;;;6.03;2.00;;;8.30;99.90;;;;;;4939299;28;20067;-77
2023/09/14 03:11:27;;;;;;;7.07;1.58;;;8.60;99.90;;;;;;4939085;28;20062;-78
2023/09/14 03:13:52;;;;;;;7.53;1.45;;;8.60;99.90;;;;;;4938563;28;20062;-75
2023/09/14 03:16:18;;;;;;;4.80;1.50;;;8.10;99.90;;;;;;4938464;28;20121;-77
2023/09/14 03:18:45;;;;;;;5.55;2.13;;;9.40;99.90;;;;;;4938601;28;20054;-77
2023/09/14 03:21:22;;;;;;;6.03;2.15;;;8.40;99.90;;;;;;4939090;28;20146;-78
2023/09/14 03:23:48;;;;;;;6.43;2.10;;;8.00;99.90;;;;;;4937857;28;20054;-77
2023/09/14 03:26:14;;;;;;;7.00;1.75;;;8.10;99.90;;;;;;4938825;28;20089;-78
2023/09/14 03:28:40;;;;;;;4.38;1.25;;;8.30;99.90;;;;;;4938873;28;20051;-77
2023/09/14 03:31:05;;;;;;;6.72;1.67;;;8.70;99.90;;;;;;4954800;28;20113;-75
2023/09/14 03:33:31;;;;;;;8.38;1.73;;;7.90;99.90;;;;;;4939196;28;20141;-77
2023/09/14 03:35:57;;;;;;;6.57;1.92;;;7.50;99.90;;;;;;4933112;28;20234;-77
2023/09/14 03:38:22;;;;;;;6.43;1.70;;;9.00;99.90;;;;;;4938739;28;20066;-75
2023/09/14 03:40:48;;;;;;;9.70;2.00;;;7.80;99.90;;;;;;4939021;28;20074;-77
2023/09/14 03:43:14;;;;;;;5.65;1.88;;;8.00;99.90;;;;;;4938491;28;20078;-78
2023/09/14 03:45:39;;;;;;;8.60;1.67;;;8.30;99.90;;;;;;4938856;28;20039;-76
2023/09/14 03:48:06;;;;;;;8.88;1.85;;;7.80;99.90;;;;;;4938936;28;20106;-77
2023/09/14 03:50:32;;;;;;;4.22;1.60;;;7.70;99.90;;;;;;4955200;28;20059;-75
2023/09/14 03:52:57;;;;;;;7.63;1.80;;;7.70;99.90;;;;;;4936955;28;20914;-76
2023/09/14 03:55:23;;;;;;;6.25;2.25;;;7.40;99.90;;;;;;4954206;28;20105;-76
2023/09/14 03:57:49;;;;;;;6.13;2.33;;;8.10;99.90;;;;;;4937908;28;20089;-77
2023/09/14 04:00:15;;;;;;;3.90;1.75;;;7.60;99.90;;;;;;4954063;28;20800;-76
2023/09/14 04:02:42;;;;;;;6.18;1.88;;;7.60;99.90;;;;;;4938312;28;20058;-77
2023/09/14 04:05:16;;;;;;;7.15;1.40;;;7.60;99.90;;;;;;4937912;28;20050;-78
2023/09/14 04:07:43;;;;;;;3.58;1.67;;;7.70;99.90;;;;;;4937258;28;20054;-77
2023/09/14 04:10:12;;;;;;;4.95;1.58;;;7.80;99.90;;;;;;4937869;28;20077;-76
2023/09/14 04:12:41;;;;;;;4.43;1.52;;;7.40;99.90;;;;;;4958221;28;20055;-76
2023/09/14 04:15:07;;;;;;;4.70;1.63;;;7.40;99.90;;;;;;4937968;28;20138;-75
2023/09/14 04:17:33;;;;;;;10.88;2.65;;;7.40;99.90;;;;;;4937721;28;20566;-78
2023/09/14 04:20:00;;;;;;;5.07;1.60;;;7.80;99.90;;;;;;4922894;28;20701;-78
2023/09/14 04:22:25;;;;;;;4.60;1.65;;;7.30;99.90;;;;;;4936846;28;20892;-75
2023/09/14 04:24:51;;;;;;;5.25;1.70;;;7.90;99.90;;;;;;4937703;28;20054;-78
2023/09/14 04:27:17;;;;;;;4.47;1.80;;;7.30;99.90;;;;;;4937631;28;20062;-78
2023/09/14 04:29:43;;;;;;;5.97;1.80;;;7.30;99.90;;;;;;4936692;28;20058;-76
2023/09/14 04:32:09;;;;;;;6.43;1.98;;;7.80;99.90;;;;;;4937079;28;20396;-77
2023/09/14 04:34:35;;;;;;;4.57;1.92;;;8.00;99.90;;;;;;4936831;28;20058;-76
2023/09/14 04:37:00;;;;;;;8.48;2.15;;;7.20;99.90;;;;;;4937307;28;20051;-76
2023/09/14 04:39:27;;;;;;;6.93;2.20;;;7.20;99.90;;;;;;4937626;28;20065;-76
2023/09/14 04:41:53;;;;;;;7.22;2.42;;;7.60;99.90;;;;;;4937198;28;20047;-76
2023/09/14 04:44:18;;;;;;;5.55;2.00;;;7.10;99.90;;;;;;4937773;28;20104;-76
2023/09/14 04:46:44;;;;;;;6.43;2.20;;;7.20;99.90;;;;;;4953512;28;20081;-76
2023/09/14 04:49:12;;;;;;;5.60;2.03;;;10.10;99.90;;;;;;4954902;28;20101;-76
2023/09/14 04:51:37;;;;;;;6.47;1.88;;;7.70;99.90;;;;;;4935697;28;20836;-76
2023/09/14 04:54:03;;;;;;;5.13;1.75;;;8.90;99.90;;;;;;4937676;28;20050;-76
2023/09/14 04:56:29;;;;;;;5.85;2.90;;;6.80;99.90;;;;;;4937545;28;20058;-77
2023/09/14 04:58:55;;;;;;;7.15;2.05;;;6.60;99.90;;;;;;4937663;28;20093;-76
2023/09/14 05:01:20;;;;;;;7.68;1.88;;;7.10;99.90;;;;;;4937867;28;20169;-76
2023/09/14 05:03:46;;;;;;;5.72;2.38;;;7.20;99.90;;;;;;4935974;28;20059;-77
2023/09/14 05:06:12;;;;;;;9.85;2.45;;;8.20;99.90;;;;;;4937272;28;20055;-78
2023/09/14 05:08:37;;;;;;;5.32;2.25;;;8.50;99.90;;;;;;4936403;28;20440;-75
2023/09/14 05:11:03;;;;;;;6.65;2.60;;;7.70;99.90;;;;;;4937022;28;20067;-76
2023/09/14 05:13:29;;;;;;;8.88;2.78;;;9.60;99.90;;;;;;4937028;28;20055;-77
2023/09/14 05:15:58;;;;;;;6.82;3.05;;;7.20;99.90;;;;;;4936165;28;20047;-78
2023/09/14 05:18:24;;;;;;;10.75;2.38;;;7.50;99.90;;;;;;4937081;28;20082;-78
2023/09/14 05:20:50;;;;;;;8.75;2.55;;;7.20;99.90;;;;;;4935402;28;20178;-76
2023/09/14 05:23:15;;;;;;;6.82;3.10;;;7.20;99.90;;;;;;4939926;28;20074;-75
2023/09/14 05:25:42;;;;;;;9.88;2.78;;;7.70;99.90;;;;;;4940694;28;20054;-77
2023/09/14 05:28:08;;;;;;;6.18;2.53;;;9.50;99.90;;;;;;4941148;28;20484;-76
2023/09/14 05:30:35;;;;;;;6.32;3.10;;;7.40;99.90;;;;;;4963633;28;20051;-75
2023/09/14 05:33:00;;;;;;;7.53;2.28;;;7.90;99.90;;;;;;4940807;28;20063;-77
2023/09/14 05:35:26;;;;;;;5.93;2.50;;;7.40;99.90;;;;;;4941108;28;20061;-76
2023/09/14 05:37:52;;;;;;;6.68;2.78;;;8.10;99.90;;;;;;4938116;28;20504;-76
2023/09/14 05:40:18;;;;;;;6.55;2.40;;;9.30;99.90;;;;;;4956892;28;20137;-79
2023/09/14 05:42:44;;;;;;;4.88;2.30;;;7.70;99.90;;;;;;4940455;28;20055;-78
2023/09/14 05:45:11;;;;;;;8.68;2.65;;;7.30;99.90;;;;;;4940462;28;20109;-76
2023/09/14 05:47:38;;;;;;;8.05;2.50;;;7.90;99.90;;;;;;4940390;28;20090;-78
2023/09/14 05:50:06;;;;;;;4.72;2.22;;;8.20;99.90;;;;;;4940048;28;20237;-75
2023/09/14 05:52:32;;;;;;;10.88;3.00;;;8.20;99.90;;;;;;4939537;28;20098;-78
2023/09/14 05:54:58;;;;;;;6.03;3.28;;;8.70;99.90;;;;;;4940224;28;20055;-77
2023/09/14 05:57:24;;;;;;;5.88;2.88;;;9.10;99.90;;;;;;4939740;28;20054;-75
2023/09/14 05:59:50;;;;;;;4.60;2.40;;;9.70;99.90;;;;;;4938958;28;20190;-77
2023/09/14 06:02:18;;;;;;;4.95;2.55;;;10.80;99.90;;;;;;4939216;28;20153;-77
2023/09/14 06:04:45;;;;;;;5.53;2.55;;;10.70;99.90;;;;;;4955886;28;20714;-77
2023/09/14 06:07:11;;;;;;;4.43;2.28;;;10.90;99.90;;;;;;4940059;28;20055;-78
2023/09/14 06:09:37;;;;;;;8.55;2.70;;;11.30;99.90;;;;;;4940527;28;20129;-77
2023/09/14 06:12:03;;;;;;;4.60;2.05;;;11.80;99.90;;;;;;4940206;28;20133;-76
2023/09/14 06:14:29;;;;;;;3.35;1.52;;;12.00;99.90;;;;;;4939470;28;20082;-76
2023/09/14 06:16:54;;;;;;;3.97;1.50;;;11.90;99.90;;;;;;4939928;28;20146;-77
2023/09/14 06:19:20;;;;;;;4.50;1.83;;;11.90;99.90;;;;;;4940167;28;20042;-78
2023/09/14 06:21:45;;;;;;;3.00;1.90;;;11.80;99.90;;;;;;4936591;28;20066;-76
2023/09/14 06:24:11;;;;;;;3.95;1.27;;;11.80;99.90;;;;;;4938428;28;20429;-78
2023/09/14 06:26:38;;;;;;;4.63;1.55;;;11.50;99.90;;;;;;4935116;28;20129;-77
2023/09/14 06:29:04;;;;;;;4.18;1.98;;;11.50;99.90;;;;;;4939880;28;20078;-77
2023/09/14 06:31:30;;;;;;;3.45;1.80;;;11.40;99.90;;;;;;4938377;28;20050;-77
2023/09/14 06:33:56;;;;;;;4.07;1.75;;;11.70;99.90;;;;;;4938411;28;20047;-76
2023/09/14 06:36:21;;;;;;;6.88;2.33;;;11.30;99.90;;;;;;4938817;28;20047;-78
2023/09/14 06:38:48;;;;;;;7.32;2.22;;;11.30;99.90;;;;;;4951984;28;20062;-78
2023/09/14 06:41:15;;;;;;;5.57;1.75;;;11.40;99.90;;;;;;4935709;28;20054;-78
2023/09/14 06:43:45;;;;;;;3.47;1.73;;;11.40;99.90;;;;;;4934753;28;20050;-78
2023/09/14 06:46:11;;;;;;;3.40;1.80;;;11.60;99.90;;;;;;4938626;28;20050;-79
2023/09/14 06:48:38;;;;;;;4.28;1.77;;;11.50;99.90;;;;;;4938334;28;20046;-78
2023/09/14 06:51:05;;;;;;;3.85;1.98;;;11.60;99.90;;;;;;4937584;28;20103;-79
2023/09/14 06:53:31;;;;;;;5.93;2.05;;;11.00;99.90;;;;;;4938877;28;20653;-79
2023/09/14 06:55:57;;;;;;;4.13;1.60;;;;;;;;;;4939176;28;20661;-78
2023/09/14 06:58:23;;;;;;;4.25;1.80;;;11.80;99.90;;;;;;4939115;28;20076;-79
2023/09/14 07:00:49;;;;;;;5.40;1.70;;;12.00;99.90;;;;;;4939434;28;20046;-79
2023/09/14 07:03:14;;;;;;;3.50;0.98;;;12.00;99.90;;;;;;4923101;28;20142;-80
2023/09/14 07:05:40;;;;;;;3.70;1.92;;;12.10;99.90;;;;;;4938888;28;20082;-79
2023/09/14 07:08:06;;;;;;;3.50;1.27;;;12.10;99.90;;;;;;4922670;28;20650;-81
2023/09/14 07:10:33;;;;;;;3.38;1.08;;;12.10;99.90;;;;;;4938696;28;20050;-79
2023/09/14 07:12:58;;;;;;;5.85;1.10;;;12.10;99.90;;;;;;4938466;28;20086;-80
2023/09/14 07:15:24;;;;;;;2.92;1.05;;;12.10;99.90;;;;;;4938153;28;20150;-81
2023/09/14 07:17:50;;;;;;;3.35;0.60;;;12.20;99.90;;;;;;4937324;28;20109;-81
2023/09/14 07:20:16;;;;;;;5.03;1.08;;;12.10;99.90;;;;;;4937412;28;20072;-82
2023/09/14 07:22:41;;;;;;;5.00;0.82;;;12.10;99.90;;;;;;4937878;28;20054;-81
2023/09/14 07:25:08;;;;;;;4.18;1.10;;;12.20;99.90;;;;;;4938313;28;20054;-79
2023/09/14 07:27:35;;;;;;;9.70;1.67;;;12.20;99.90;;;;;;4938873;28;20090;-81
2023/09/14 07:30:06;;;;;;;2.78;1.00;;;12.20;99.90;;;;;;4978827;23;20101;-94
2023/09/14 07:32:33;;;;;;;3.90;1.52;;;;;;;;;;4979995;28;20057;-96
2023/09/14 07:35:05;;;;;;;3.88;1.35;;;12.40;99.90;;;;;;4959457;28;20067;-94
2023/09/14 07:37:34;;;;;;;7.72;3.38;;;;;;;;;;4916261;29;20082;-96
2023/09/14 07:40:01;;;;;;;7.05;1.85;;;;;;;;;;4933929;28;20149;-95
2023/09/14 07:42:29;;;;;;;3.70;1.52;;;12.50;99.90;;;;;;4936332;28;20047;-96
2023/09/14 07:45:07;;;;;;;6.22;1.73;;;12.90;99.90;;;;;;4939017;28;20425;-94
2023/09/14 07:50:23;;;;;;;6.75;1.52;;;;;;;;;;4945615;28;20498;-94
2023/09/14 07:52:52;;;;;;;4.38;1.20;;;13.00;99.90;;;;;;4954754;28;20063;-95
2023/09/14 07:55:23;;;;;;;3.72;1.10;;;13.40;99.90;;;;;;4940853;28;20098;-95
2023/09/14 07:57:49;;;;;;;4.50;1.20;;;13.50;99.90;;;;;;4933896;28;20059;-95
2023/09/14 08:00:15;;;;;;;5.30;1.67;;;;;;;;;;4938366;28;20061;-94
2023/09/14 08:02:47;;;;;;;8.88;1.50;;;13.50;99.90;;;;;;4966938;28;20098;-92
2023/09/14 08:05:13;;;;;;;9.23;2.40;;;;;;;;;;4932553;28;20086;-93
2023/09/14 08:07:42;;;;;;;4.85;0.90;;;13.70;99.90;;;;;;4941928;28;20053;-95
2023/09/14 08:10:09;;;;;;;4.65;1.00;;;13.80;99.90;;;;;;4943214;28;20069;-93
2023/09/14 08:12:38;;;;;;;6.28;1.33;;;12.60;99.90;;;;;;4957279;28;21196;-94
2023/09/14 08:15:12;;;;;;;3.38;0.63;;;14.00;99.90;;;;;;4940454;28;20054;-94
2023/09/14 08:17:40;;;;;;;4.82;0.75;;;14.50;99.90;;;;;;4954061;28;20061;-94
2023/09/14 08:20:17;;;;;;;3.85;0.50;;;14.90;99.90;;;;;;4937589;28;20058;-93
2023/09/14 08:22:44;;;;;;;4.75;0.50;;;;;;;;;;4935325;28;20076;-94
2023/09/14 08:25:15;;;;;;;11.70;1.40;;;16.20;99.90;;;;;;4958616;28;20057;-93
2023/09/14 08:27:50;;;;;;;5.78;1.13;;;18.90;99.90;;;;;;4931851;29;20059;-94
2023/09/14 08:30:24;;;;;;;8.50;0.80;;;20.00;99.90;;;;;;4939506;28;20086;-94
2023/09/14 08:32:55;;;;;;;2.88;0.60;;;18.30;99.90;;;;;;4939831;28;20471;-94
2023/09/14 08:35:49;;;;;;;3.95;0.63;;;23.00;99.90;;;;;;4956236;28;20117;-96
2023/09/14 08:38:26;;;;;;;6.47;0.60;;;24.50;99.90;;;;;;4944705;28;20312;-95
2023/09/14 08:40:55;;;;;;;4.18;0.60;;;24.00;99.90;;;;;;4941127;28;20058;-95
2023/09/14 08:43:22;;;;;;;4.90;0.80;;;23.80;99.50;;;;;;4961615;28;20471;-93
2023/09/14 08:46:02;;;;;;;5.55;0.90;;;26.20;98.50;;;;;;4942218;28;20050;-94
2023/09/14 08:48:42;;;;;;;4.60;1.13;;;25.00;96.10;;;;;;4931074;29;20148;-94
2023/09/14 08:51:20;;;;;;;4.18;0.60;;;25.60;94.30;;;;;;4916907;28;20047;-95
2023/09/14 08:54:05;;;;;;;5.07;0.63;;;26.20;92.90;;;;;;4931253;28;20093;-96
2023/09/14 08:56:35;;;;;;;3.25;0.60;;;26.40;91.70;;;;;;4929927;28;20137;-96
2023/09/14 08:59:12;;;;;;;5.68;0.77;;;25.80;90.90;;;;;;4910971;28;20062;-93
2023/09/14 09:01:39;;;;;;;5.13;0.63;;;27.00;91.30;;;;;;4933999;28;20058;-96
2023/09/14 09:04:05;;;;;;;7.68;0.90;;;26.90;88.80;;;;;;4928835;28;20308;-95
2023/09/14 09:06:38;;;;;;;4.65;0.60;;;26.90;90.30;;;;;;4943727;28;20054;-96
2023/09/14 09:09:21;;;;;;;5.93;0.70;;;26.60;88.70;;;;;;4935412;28;20065;-96
2023/09/14 09:12:11;;;;;;;5.88;0.77;;;24.30;88.00;;;;;;4927639;28;20054;-94
2023/09/14 09:15:22;;;;;;;7.45;1.10;;;26.10;87.10;;;;;;4944957;28;20055;-94
2023/09/14 09:18:37;;;;;;;5.70;0.82;;;26.50;85.70;;;;;;4910024;28;20062;-95
2023/09/14 09:21:30;;;;;;;7.57;0.88;;;26.40;88.90;;;;;;4913484;28;20058;-94
2023/09/14 09:25:05;;;;;;;5.07;0.80;;;27.10;84.80;;;;;;4933068;28;20055;-95
2023/09/14 09:27:33;;;;;;;8.20;1.38;;;27.40;84.80;;;;;;4902422;28;20524;-94
2023/09/14 09:30:22;;;;;;;4.63;0.75;;;27.20;89.00;;;;;;4905713;28;20174;-94
2023/09/14 09:33:13;;;;;;;6.10;0.65;;;26.90;83.80;;;;;;4872949;29;20063;-95
2023/09/14 09:36:30;;;;;;;3.63;0.98;;;27.30;81.10;;;;;;4884481;29;20048;-95
2023/09/14 09:39:01;;;;;;;7.43;1.02;;;27.30;81.10;;;;;;4901306;29;20050;-96
2023/09/14 09:41:43;;;;;;;5.20;1.38;;;27.40;84.10;;;;;;4901116;29;20063;-95
2023/09/14 09:44:09;;;;;;;5.35;0.60;;;27.30;82.10;;;;;;4906029;29;20101;-96
2023/09/14 09:46:36;;;;;;;4.47;0.68;;;27.10;82.50;;;;;;4882921;29;20340;-95
2023/09/14 09:49:42;;;;;;;5.72;0.80;;;27.30;80.00;;;;;;4894254;28;20059;-96
2023/09/14 09:52:22;;;;;;;4.78;0.60;;;28.20;79.00;;;;;;4918743;28;20097;-94
2023/09/14 09:54:54;;;;;;;5.60;0.70;;;27.50;76.90;;;;;;4903113;28;20055;-95
2023/09/14 09:57:30;;;;;;;5.30;0.90;;;28.00;83.30;;;;;;4888953;28;20957;-95
2023/09/14 10:00:13;;;;;;;5.78;0.80;;;27.40;78.60;;;;;;4904769;28;20255;-95
2023/09/14 10:02:52;;;;;;;4.90;0.70;;;27.40;78.90;;;;;;4916715;28;20054;-95
2023/09/14 10:05:36;;;;;;;4.80;0.60;;;27.30;78.00;;;;;;4907975;28;20054;-95
2023/09/14 10:08:05;;;;;;;6.30;0.75;;;27.30;75.50;;;;;;4919925;28;20058;-95
2023/09/14 10:10:35;;;;;;;5.35;0.52;;;27.30;76.30;;;;;;4904585;28;20087;-96
2023/09/14 10:13:04;;;;;;;7.70;0.98;;;27.70;78.80;;;;;;4912030;28;20065;-96
2023/09/14 10:15:40;;;;;;;4.15;0.77;;;27.00;75.00;;;;;;4890978;28;20051;-95
2023/09/14 10:18:07;;;;;;;12.88;3.40;;;26.30;75.30;;;;;;4920836;28;20055;-96
2023/09/14 10:20:33;;;;;;;5.60;0.80;;;26.60;77.50;;;;;;4922646;28;20157;-95
2023/09/14 10:23:01;;;;;;;7.88;1.02;;;26.60;79.90;;;;;;4899756;28;20055;-96
2023/09/14 10:25:39;;;;;;;4.18;0.70;;;26.40;75.80;;;;;;4911536;28;20043;-96
2023/09/14 10:28:09;;;;;;;4.28;0.82;;;26.20;76.80;;;;;;4912588;28;20059;-95
2023/09/14 10:30:35;;;;;;;4.95;0.95;;;25.40;75.40;;;;;;4912349;28;20689;-94
2023/09/14 10:33:03;;;;;;;3.90;0.70;;;25.80;75.70;;;;;;4911724;28;20107;-94
2023/09/14 10:35:30;;;;;;;3.70;0.90;;;26.10;74.20;;;;;;4897382;28;20055;-93
2023/09/14 10:38:01;;;;;;;4.85;0.88;;;25.10;73.90;;;;;;4922762;28;20055;-94
2023/09/14 10:40:30;;;;;;;3.65;0.80;;;24.60;74.70;;;;;;4910213;28;20425;-96
2023/09/14 10:42:59;;;;;;;8.05;1.00;;;24.20;73.20;;;;;;4903751;28;20054;-96
2023/09/14 10:45:30;;;;;;;6.97;0.90;;;24.10;75.60;;;;;;4921551;29;20163;-95
2023/09/14 10:47:57;;;;;;;6.63;0.70;;;23.50;73.50;;;;;;4934234;28;20043;-94
2023/09/14 10:50:24;;;;;;;6.28;1.08;;;23.50;73.40;;;;;;4900310;28;20051;-96
2023/09/14 10:53:01;;;;;;;3.70;0.68;;;23.10;74.00;;;;;;4919908;28;20043;-95
2023/09/14 10:55:38;;;;;;;4.95;1.23;;;22.80;76.40;;;;;;4887601;29;20079;-93
2023/09/14 10:58:12;;;;;;;7.30;1.10;;;22.60;75.90;;;;;;4944911;28;20092;-94
2023/09/14 11:01:00;;;;;;;7.00;0.70;;;22.40;78.30;;;;;;4934553;28;21226;-96
2023/09/14 11:07:05;;;;;;;6.78;1.02;;;22.40;78.80;;;;;;4961912;28;20133;-95
2023/09/14 11:09:34;;;;;;;4.97;1.15;;;;;;;;;;4943109;28;20027;-95
2023/09/14 11:12:42;;;;;;;10.00;1.13;;;22.40;78.10;;;;;;4932110;28;20078;-96
2023/09/14 11:15:40;;;;;;;6.60;1.25;;;22.50;81.40;;;;;;4950642;28;20097;-96
2023/09/14 11:18:44;;;;;;;2.88;0.50;;;22.20;80.30;;;;;;4939885;28;20146;-96
2023/09/14 11:21:32;;;;;;;7.72;1.60;;;21.90;82.60;;;;;;4942733;28;20042;-96
2023/09/14 11:23:59;;;;;;;7.40;1.13;;;21.60;81.40;;;;;;4944449;28;20054;-96
2023/09/14 11:26:32;;;;;;;5.85;1.10;;;21.30;83.70;;;;;;4938680;28;20187;-96
2023/09/14 11:29:19;;;;;;;6.30;1.20;;;21.40;84.90;;;;;;4939379;28;20120;-94
2023/09/14 11:32:07;;;;;;;7.45;1.20;;;21.80;85.70;;;;;;4925182;28;20421;-95
2023/09/14 11:34:39;;;;;;;6.90;1.02;;;21.20;86.00;;;;;;4950927;28;20058;-96
2023/09/14 11:37:31;;;;;;;6.15;0.93;;;20.80;86.70;;;;;;4891311;28;20149;-95
2023/09/14 11:40:18;;;;;;;7.68;0.98;;;20.50;86.10;;;;;;4922296;28;20050;-95
2023/09/14 11:43:26;;;;;;;4.75;1.42;;;20.60;87.30;;;;;;4937699;28;20109;-95
2023/09/14 11:46:28;;;;;;;6.38;1.15;;;20.90;88.40;;;;;;4947419;28;20050;-95
2023/09/14 11:48:55;;;;;;;5.43;1.92;;;;;;;;;;4920962;28;20063;-94
2023/09/14 11:51:24;;;;;;;6.07;1.25;;;;;;;;;;4934953;28;20141;-93
2023/09/14 11:53:59;;;;;;;3.67;0.60;;;20.10;87.50;;;;;;4950529;28;20096;-96
2023/09/14 11:56:34;;;;;;;8.63;1.05;;;20.00;86.50;;;;;;4922152;28;20437;-94
2023/09/14 11:59:02;;;;;;;7.15;1.23;;;;;;;;;;4884862;28;20089;-94
2023/09/14 12:01:36;;;;;;;4.82;0.52;;;20.40;85.30;;;;;;4901827;28;20134;-96
2023/09/14 12:04:05;;;;;;;6.20;1.02;;;19.80;85.90;;;;;;4932250;28;20202;-94
2023/09/14 12:06:32;;;;;;;6.43;1.77;;;;;;;;;;4937617;28;20043;-95
2023/09/14 12:09:15;;;;;;;5.25;1.02;;;19.80;86.00;;;;;;4915764;28;20055;-94
2023/09/14 12:11:43;;;;;;;6.50;1.27;;;;;;;;;;4919013;28;20771;-94
2023/09/14 12:14:15;;;;;;;4.30;0.90;;;19.50;87.70;;;;;;4910035;28;20058;-95
2023/09/14 12:17:48;;;;;;;4.68;0.73;;;19.50;90.60;;;;;;4896233;28;20059;-95
2023/09/14 12:20:26;;;;;;;4.32;0.80;;;19.60;90.70;;;;;;4821182;29;20066;-95
2023/09/14 12:22:53;;;;;;;4.50;0.98;;;;;;;;;;4902997;28;20089;-95
2023/09/14 12:25:19;;;;;;;6.28;1.10;;;;;;;;;;4914027;28;20055;-94
2023/09/14 12:27:46;;;;;;;3.85;1.25;;;;;;;;;;4910230;28;22364;-94
2023/09/14 12:30:43;;;;;;;4.60;0.88;;;19.60;88.60;;;;;;4908560;28;20047;-96
2023/09/14 12:33:10;;;;;;;5.55;0.90;;;;;;;;;;4918697;28;20061;-95
2023/09/14 12:35:42;;;;;;;6.13;1.50;;;19.40;88.50;;;;;;4915881;28;20430;-94
2023/09/14 12:38:11;;;;;;;3.75;1.10;;;19.60;89.70;;;;;;4897866;28;20054;-95
2023/09/14 12:40:55;;;;;;;6.95;1.92;;;19.60;89.00;;;;;;4916293;28;20061;-94
2023/09/14 12:43:21;;;;;;;6.60;1.20;;;;;;;;;;4904412;28;20054;-94
2023/09/14 12:45:55;;;;;;;5.55;1.15;;;19.80;87.80;;;;;;4912550;28;20050;-93
2023/09/14 12:48:21;;;;;;;4.82;1.15;;;;;;;;;;4928487;28;20736;-93
2023/09/14 12:50:48;;;;;;;6.32;1.40;;;;;;;;;;4928704;28;20089;-95
2023/09/14 12:53:27;;;;;;;12.70;1.30;;;;;;;;;;4937966;28;20062;-95
2023/09/14 12:55:56;;;;;;;4.38;0.90;;;;;;;;;;4911315;28;20112;-94
2023/09/14 12:58:29;;;;;;;6.38;1.30;;;;;;;;;;4904882;28;20078;-95
2023/09/14 13:01:15;;;;;;;5.93;1.00;;;20.10;84.30;;;;;;4925884;28;20047;-96
2023/09/14 13:03:41;;;;;;;7.43;1.25;;;;;;;;;;4931561;28;20054;-95
2023/09/14 13:06:08;;;;;;;8.55;1.10;;;;;;;;;;4933896;28;20139;-95
2023/09/14 13:09:08;;;;;;;6.45;1.88;;;20.30;84.70;;;;;;4903582;28;20069;-94
2023/09/14 13:11:38;;;;;;;6.60;1.27;;;20.50;82.60;;;;;;4908059;28;20057;-95
2023/09/14 13:14:34;;;;;;;4.78;1.40;;;20.70;84.60;;;;;;4908386;28;20059;-94
2023/09/14 13:17:03;;;;;;;4.57;1.20;;;20.40;82.20;;;;;;4913232;28;20197;-95
2023/09/14 13:19:45;;;;;;;;;;;19.00;85.80;;;;;;4906308;28;20051;-96
2023/09/14 13:22:25;;;;;;;7.47;1.35;;;20.40;86.40;;;;;;4902210;28;20932;-96
2023/09/14 13:24:55;;;;;;;6.50;1.05;;;20.30;86.60;;;;;;4897620;28;20090;-96
2023/09/14 13:27:31;;;;;;;4.45;1.10;;;19.70;85.30;;;;;;4908218;28;20354;-96